Commit Graph

622 Commits

Author SHA1 Message Date
jeffvli 8b2d162733 adjust grid column counts based on new breakpoint configuration 2025-12-27 01:43:48 -08:00
jeffvli 0acb1f54fc lint files 2025-12-27 01:27:10 -08:00
jeffvli 3db229ef68 re-add similar artists carousel to artist page 2025-12-27 01:13:28 -08:00
jeffvli 48724f816c fix compact item card styling for light mode 2025-12-26 15:09:43 -08:00
jeffvli dff182cbc5 use correct id for runtime images in useItemImageUrl 2025-12-26 14:04:48 -08:00
jeffvli 8e04f98e26 fix expand button on compact ItemCard 2025-12-24 03:17:39 -08:00
jeffvli 51587fbb6b add grid item card size presets 2025-12-23 21:59:52 -08:00
jeffvli 936ba73fe4 remove refresh buttons from grid carousel by default 2025-12-23 21:27:12 -08:00
jeffvli 05efd0f318 temporarily remove item list selection dialog 2025-12-23 21:05:50 -08:00
jeffvli c3e38d7133 fix drag preview image url generation 2025-12-23 20:53:07 -08:00
Jeff 25bfb65b6d Add image URL generation at runtime to allow for dynamic image sizes (#1439)
* add getImageUrl to domain endpoints

* add new ItemImage component and hooks to generate image url

* add configuration for image resolution based on types
2025-12-23 20:18:52 -08:00
Exceen c34b6774b9 fixed favorite tracks/albums/artists selection (#1418) 2025-12-22 18:43:16 -08:00
jeffvli e3c26aa5fa remove selection dialog from certain list views 2025-12-16 21:06:56 -08:00
jeffvli e21f538aa4 add item list selection dialog 2025-12-16 20:24:46 -08:00
jeffvli 88b27fa378 more small adjustments to light mode 2025-12-15 00:55:13 -08:00
jeffvli 3c2af4bd1a more minor theme adjustments 2025-12-14 19:33:03 -08:00
Kendall Garner f5d6c4983c remove rating from item card if using jellyfin 2025-12-14 16:45:54 -08:00
jeffvli d4e39ca12d improve page header readability on all themes 2025-12-14 16:23:45 -08:00
jeffvli 69de9a98f0 add new app themes 2025-12-14 06:06:27 -08:00
jeffvli b6e7bfb9bc remove drag area from page header when using custom window bars 2025-12-14 04:55:38 -08:00
jeffvli 8b0632495b fix debounce on onScrollEnd callback on ItemGridList 2025-12-14 01:07:26 -08:00
Damien Erambert 22dd20884d Light mode fixes (#1379)
* Fix color of text in text buttons in light mode

* fix border color of search input in light mode

* fix carousel text colors in light mode

* fix scroll shadows colors in light mode
2025-12-12 19:30:30 -08:00
jeffvli ce6155fe47 more feature carousel optimizations
- decrease title size
- only show first artist
2025-12-12 00:54:29 -08:00
jeffvli aa435bbfc4 redesign feature carousel to be more compact 2025-12-11 21:25:35 -08:00
jeffvli 5da119e065 use absolute date for release date column (#1364) 2025-12-10 17:36:03 -08:00
jeffvli 753f35f81b remove truncation from path column (#1351) 2025-12-09 17:38:16 -08:00
jeffvli fcfe39aa2b support alternate row colors on sidebar (#1354) 2025-12-09 17:32:29 -08:00
jeffvli d5799af44e remove drag bar from carousel - add vertical scroll 2025-12-09 00:09:03 -08:00
jeffvli 4f4300042b add bitDepth, sampleRate columns to table (#1205) 2025-12-07 19:41:03 -08:00
jeffvli 9385c25ea9 fix drag styles on playlist reorder 2025-12-07 00:20:27 -08:00
jeffvli e84d5eca8f fix missing drag "add" operation to playlist song items 2025-12-06 18:30:54 -08:00
jeffvli 0a7029f7bc add support for full playlist re-order (#1327) 2025-12-06 17:41:13 -08:00
jeffvli 8c545f6d21 add missing play button onto title combined image 2025-12-04 18:03:26 -08:00
jeffvli b66530f8fd fix table not re-rendering on column configuration change 2025-12-04 04:07:24 -08:00
jeffvli 20830cb979 fix playlist song list context menu showing remove item 2025-12-03 22:25:41 -08:00
jeffvli a47f94ebb2 add refresh button to album / artist carousels 2025-12-03 18:05:15 -08:00
jeffvli 85c0d8503b adjust grid carousel breakpoints 2025-12-03 17:48:58 -08:00
jeffvli 55ebc7d74a improve image column play handler to support long press 2025-12-03 16:25:28 -08:00
jeffvli a7e6a75c68 normalize tooltips 2025-12-03 16:00:41 -08:00
jeffvli 0b5b554eec fix compact image sizing 2025-12-03 14:55:22 -08:00
jeffvli 917bf91583 add folder browsing support (#315) 2025-12-03 14:55:16 -08:00
jeffvli 854a26e3f4 make page header padding consistent with filter bar 2025-12-02 18:38:08 -08:00
jeffvli ddb6447165 fix table image aspect ratio 2025-12-02 18:38:08 -08:00
jeffvli 4d2721db50 fix table scrollsync on column change 2025-12-02 18:38:02 -08:00
jeffvli 97af90c004 re-add play button to image column 2025-12-02 01:35:19 -08:00
jeffvli 6d8947fe74 add double click play handler to song lists 2025-12-02 01:35:18 -08:00
jeffvli 07523f82ce suspend infinite loader on fetch 2025-12-02 00:28:45 -08:00
jeffvli aff7a61bca fix list filters 2025-12-02 00:11:42 -08:00
jeffvli 93d4536ba6 improve favorite / rating display on item card 2025-12-01 20:04:40 -08:00
jeffvli 994d8bac71 fix list table autosize on row count change 2025-12-01 13:30:58 -08:00